createdAt,value
2023-02-11T00:02:12.525Z,81.76
2023-02-11T00:04:39.877Z,81.75
2023-02-11T00:07:08.741Z,82.30
2023-02-11T00:09:36.009Z,81.73
2023-02-11T00:12:03.661Z,82.26
2023-02-11T00:14:30.896Z,81.78
2023-02-11T00:16:58.263Z,81.72
2023-02-11T00:19:25.615Z,82.30
2023-02-11T00:21:53.063Z,81.63
2023-02-11T00:24:21.932Z,82.07
2023-02-11T00:26:49.187Z,82.13
2023-02-11T00:29:16.628Z,82.21
2023-02-11T00:31:44.099Z,81.96
2023-02-11T00:34:11.448Z,82.56
2023-02-11T00:36:39.104Z,82.07
2023-02-11T00:39:07.460Z,82.73
2023-02-11T00:41:37.673Z,82.21
2023-02-11T00:44:05.267Z,82.43
2023-02-11T00:46:32.659Z,82.51
2023-02-11T00:48:59.922Z,82.17
2023-02-11T00:51:28.224Z,82.48
2023-02-11T00:53:55.678Z,82.21
2023-02-11T00:56:23.836Z,82.62
2023-02-11T00:58:53.539Z,82.72
2023-02-11T01:01:20.808Z,82.33
2023-02-11T01:03:48.188Z,82.84
2023-02-11T01:06:15.824Z,83.03
2023-02-11T01:08:43.161Z,82.20
2023-02-11T01:11:14.195Z,82.64
2023-02-11T01:13:42.542Z,82.16
2023-02-11T01:16:11.837Z,82.68
2023-02-11T01:18:39.466Z,82.86
2023-02-11T01:21:07.791Z,81.79
2023-02-11T01:23:35.417Z,82.73
2023-02-11T01:26:02.849Z,82.44
2023-02-11T01:28:31.173Z,82.41
2023-02-11T01:31:01.088Z,81.96
2023-02-11T01:33:30.469Z,81.73
2023-02-11T01:36:01.980Z,81.95
2023-02-11T01:38:29.852Z,82.22
2023-02-11T01:40:58.647Z,81.64
2023-02-11T01:43:28.192Z,82.12
2023-02-11T01:46:03.494Z,82.53
2023-02-11T01:48:36.310Z,81.38
2023-02-11T01:51:09.080Z,81.49
2023-02-11T01:53:57.233Z,82.28
2023-02-11T01:56:44.798Z,82.24
2023-02-11T01:59:18.511Z,81.89
2023-02-11T02:01:53.257Z,81.76
2023-02-11T02:04:27.594Z,81.65
2023-02-11T02:07:03.860Z,81.76
2023-02-11T02:09:36.941Z,82.54
2023-02-11T02:12:04.991Z,82.05
2023-02-11T02:14:32.474Z,82.52
2023-02-11T02:16:59.793Z,81.85
2023-02-11T02:19:58.849Z,81.71
2023-02-11T02:22:59.073Z,82.30
2023-02-11T02:25:47.881Z,81.89
2023-02-11T02:28:37.094Z,81.93
2023-02-11T02:31:24.879Z,82.19
2023-02-11T02:33:59.086Z,81.85
2023-02-11T02:36:37.452Z,81.71
2023-02-11T02:39:10.912Z,81.23
2023-02-11T02:41:40.270Z,81.72
2023-02-11T02:44:08.638Z,81.53
2023-02-11T02:46:36.858Z,81.04
2023-02-11T02:49:07.397Z,81.43
2023-02-11T02:51:56.697Z,81.68
2023-02-11T02:54:43.958Z,81.73
2023-02-11T02:57:27.523Z,81.34
2023-02-11T03:00:06.774Z,80.87
2023-02-11T03:02:41.819Z,80.90
2023-02-11T03:05:16.345Z,81.50
2023-02-11T03:07:48.964Z,80.64
2023-02-11T03:10:19.764Z,80.98
2023-02-11T03:12:48.655Z,80.80
2023-02-11T03:15:19.183Z,80.07
2023-02-11T03:17:49.861Z,80.56
2023-02-11T03:20:21.607Z,80.43
2023-02-11T03:22:53.120Z,80.65
2023-02-11T03:25:22.909Z,80.40
2023-02-11T03:27:56.321Z,79.99
2023-02-11T03:30:30.468Z,79.89
2023-02-11T03:33:03.811Z,80.43
2023-02-11T03:35:37.189Z,79.78
2023-02-11T03:38:08.361Z,80.29
2023-02-11T03:40:38.824Z,79.91
2023-02-11T03:43:10.637Z,79.88
2023-02-11T03:45:39.258Z,80.08
2023-02-11T03:48:12.779Z,79.98
2023-02-11T03:50:42.379Z,79.52
2023-02-11T03:53:11.863Z,80.04
2023-02-11T03:55:40.806Z,79.69
2023-02-11T03:58:09.075Z,79.62
2023-02-11T04:00:39.725Z,79.66
2023-02-11T04:03:08.559Z,80.01
2023-02-11T04:05:36.612Z,80.28
2023-02-11T04:08:05.612Z,80.14
2023-02-11T04:10:33.486Z,79.80
2023-02-11T04:13:00.981Z,79.92
2023-02-11T04:15:28.354Z,80.19
2023-02-11T04:17:55.944Z,80.40
2023-02-11T04:20:23.305Z,79.60
2023-02-11T04:22:50.656Z,80.17
2023-02-11T04:25:19.526Z,79.87
2023-02-11T04:27:46.946Z,79.74
2023-02-11T04:30:14.603Z,80.28
2023-02-11T04:32:42.211Z,79.95
2023-02-11T04:35:09.783Z,80.28
2023-02-11T04:37:37.112Z,80.31
2023-02-11T04:40:05.111Z,80.25
2023-02-11T04:42:33.776Z,80.06
2023-02-11T04:45:00.995Z,80.56
2023-02-11T04:47:28.345Z,79.93
2023-02-11T04:49:55.691Z,80.22
2023-02-11T04:52:22.945Z,80.19
2023-02-11T04:54:50.254Z,80.39
2023-02-11T04:57:17.507Z,80.33
2023-02-11T04:59:46.274Z,80.84
2023-02-11T05:02:13.525Z,80.83
2023-02-11T05:04:40.776Z,80.60
2023-02-11T05:07:07.959Z,80.76
2023-02-11T05:09:35.437Z,80.23
2023-02-11T05:12:02.728Z,80.91
2023-02-11T05:14:30.065Z,80.88
2023-02-11T05:16:58.748Z,81.05
2023-02-11T05:19:26.136Z,80.51
2023-02-11T05:22:02.553Z,80.82
2023-02-11T05:24:30.662Z,80.86
2023-02-11T05:26:57.975Z,80.87
2023-02-11T05:29:25.253Z,80.94
2023-02-11T05:31:52.964Z,81.25
2023-02-11T05:34:21.762Z,80.99
2023-02-11T05:36:49.096Z,80.55
2023-02-11T05:39:16.432Z,80.77
2023-02-11T05:41:43.579Z,80.80
2023-02-11T05:44:10.958Z,81.20
2023-02-11T05:46:38.364Z,81.05
2023-02-11T05:49:05.511Z,80.88
2023-02-11T05:51:34.087Z,81.35
2023-02-11T05:54:01.625Z,81.53
2023-02-11T05:56:29.035Z,81.15
2023-02-11T05:58:56.345Z,81.50
2023-02-11T06:01:23.800Z,81.95
2023-02-11T06:03:51.574Z,81.72
2023-02-11T06:06:18.870Z,81.63
2023-02-11T06:08:47.571Z,81.88
2023-02-11T06:11:16.087Z,81.46
2023-02-11T06:13:43.435Z,81.51
2023-02-11T06:16:10.758Z,81.58
2023-02-11T06:18:38.216Z,81.93
2023-02-11T06:21:08.222Z,82.04
2023-02-11T06:23:35.760Z,81.63
2023-02-11T06:26:06.221Z,81.64
2023-02-11T06:28:38.765Z,81.68
2023-02-11T06:31:12.074Z,81.73
2023-02-11T06:33:39.914Z,81.87
2023-02-11T06:36:14.397Z,81.76
2023-02-11T06:38:54.971Z,81.79
2023-02-11T06:41:24.237Z,81.68
2023-02-11T06:43:52.900Z,81.60
2023-02-11T06:46:20.550Z,81.60
2023-02-11T06:48:50.476Z,81.67
2023-02-11T06:51:18.747Z,81.75
2023-02-11T06:53:47.099Z,81.62
2023-02-11T06:56:18.503Z,81.96
2023-02-11T06:58:47.946Z,82.14
2023-02-11T07:01:16.598Z,81.81
2023-02-11T07:03:45.301Z,81.38
2023-02-11T07:06:14.760Z,80.99
2023-02-11T07:08:43.581Z,81.18
2023-02-11T07:11:11.676Z,80.85
2023-02-11T07:13:39.191Z,81.20
2023-02-11T07:16:10.060Z,80.43
2023-02-11T07:18:38.120Z,80.39
2023-02-11T07:21:06.339Z,81.02
2023-02-11T07:23:34.216Z,80.05
2023-02-11T07:26:03.594Z,80.01
2023-02-11T07:28:31.054Z,79.74
2023-02-11T07:30:58.468Z,80.47
2023-02-11T07:33:27.413Z,80.49
2023-02-11T07:35:54.893Z,80.53
2023-02-11T07:38:22.171Z,80.02
2023-02-11T07:40:49.410Z,79.16
2023-02-11T07:43:16.613Z,79.50
2023-02-11T07:45:44.055Z,78.71
2023-02-11T07:48:11.515Z,79.53
2023-02-11T07:50:40.275Z,78.87
2023-02-11T07:53:07.568Z,78.62
2023-02-11T07:55:34.944Z,78.65
2023-02-11T07:58:02.217Z,78.51
2023-02-11T08:00:29.556Z,78.54
2023-02-11T08:02:57.296Z,79.18
2023-02-11T08:05:24.518Z,78.68
2023-02-11T08:07:53.706Z,78.73
2023-02-11T08:10:21.280Z,79.00
2023-02-11T08:12:48.828Z,78.77
2023-02-11T08:15:16.321Z,79.39
2023-02-11T08:17:43.600Z,79.16
2023-02-11T08:20:12.102Z,79.05
2023-02-11T08:22:39.600Z,78.76
2023-02-11T08:25:08.554Z,78.18
2023-02-11T08:27:35.909Z,77.94
2023-02-11T08:30:04.041Z,77.62
2023-02-11T08:32:31.611Z,77.95
2023-02-11T08:34:59.125Z,78.11
2023-02-11T08:37:26.615Z,77.77
2023-02-11T08:39:54.041Z,77.72
2023-02-11T08:42:22.707Z,78.12
2023-02-11T08:44:49.984Z,78.48
2023-02-11T08:47:17.276Z,78.58
2023-02-11T08:49:44.627Z,78.44
2023-02-11T08:52:12.341Z,78.51
2023-02-11T08:54:39.655Z,78.59
2023-02-11T08:57:06.998Z,78.78
2023-02-11T08:59:35.717Z,78.75
2023-02-11T09:02:03.024Z,79.14
2023-02-11T09:04:30.602Z,78.61
2023-02-11T09:06:57.930Z,79.35
2023-02-11T09:09:25.146Z,79.11
2023-02-11T09:11:57.246Z,79.16
2023-02-11T09:14:24.960Z,79.24
2023-02-11T09:16:54.182Z,79.10
2023-02-11T09:19:23.233Z,79.46
2023-02-11T09:21:50.647Z,79.66
2023-02-11T09:24:18.685Z,79.48
2023-02-11T09:26:46.225Z,79.23
2023-02-11T09:29:13.479Z,80.20
2023-02-11T09:31:41.379Z,80.28
2023-02-11T09:34:11.238Z,80.73
2023-02-11T09:36:40.943Z,80.55
2023-02-11T09:39:12.093Z,79.75
2023-02-11T09:42:07.941Z,80.46
2023-02-11T09:44:37.070Z,80.37
2023-02-11T09:47:10.737Z,80.61
2023-02-11T09:49:44.775Z,81.17
2023-02-11T09:52:19.060Z,81.06
2023-02-11T09:54:55.016Z,81.06
2023-02-11T09:57:28.540Z,81.05
2023-02-11T09:59:57.798Z,81.74
2023-02-11T10:02:30.080Z,81.20
2023-02-11T10:05:25.780Z,82.03
2023-02-11T10:08:01.575Z,81.53
2023-02-11T10:10:40.667Z,82.04
2023-02-11T10:13:29.857Z,82.16
2023-02-11T10:16:04.678Z,82.43
2023-02-11T10:18:46.733Z,81.88
2023-02-11T10:21:23.547Z,82.11
2023-02-11T10:23:54.699Z,82.42
2023-02-11T10:26:22.999Z,82.92
2023-02-11T10:28:53.980Z,82.09
2023-02-11T10:31:26.006Z,81.95
2023-02-11T10:33:59.480Z,82.33
2023-02-11T10:36:30.321Z,81.42
2023-02-11T10:38:59.307Z,82.02
2023-02-11T10:41:31.253Z,82.02
2023-02-11T10:44:00.314Z,81.95
2023-02-11T10:46:33.240Z,81.96
2023-02-11T10:49:00.706Z,82.09
2023-02-11T10:51:33.731Z,81.56
2023-02-11T10:54:19.364Z,81.96
2023-02-11T10:56:50.362Z,80.63
2023-02-11T10:59:27.338Z,81.19
2023-02-11T11:01:59.251Z,80.02
2023-02-11T11:04:45.445Z,80.39
2023-02-11T11:07:18.355Z,79.96
2023-02-11T11:09:49.688Z,79.02
2023-02-11T11:12:26.587Z,78.93
2023-02-11T11:14:59.288Z,78.24
2023-02-11T11:17:29.302Z,78.21
2023-02-11T11:20:19.924Z,78.28
2023-02-11T11:22:50.354Z,77.91
2023-02-11T11:25:26.829Z,77.29
2023-02-11T11:27:57.099Z,77.65
2023-02-11T11:30:27.774Z,78.14
2023-02-11T11:32:55.375Z,77.58
2023-02-11T11:35:26.142Z,77.99
2023-02-11T11:38:01.399Z,77.83
2023-02-11T11:40:30.629Z,77.87
2023-02-11T11:43:20.223Z,77.20
2023-02-11T11:45:57.278Z,77.29
2023-02-11T11:48:28.617Z,77.51
2023-02-11T11:50:59.797Z,77.14
2023-02-11T11:53:37.350Z,77.19
2023-02-11T11:56:09.622Z,77.76
2023-02-11T11:58:37.780Z,77.77
2023-02-11T12:01:18.781Z,77.66
2023-02-11T12:04:11.942Z,77.28
2023-02-11T12:06:53.932Z,77.95
2023-02-11T12:09:31.695Z,77.41
2023-02-11T12:12:32.386Z,77.50
2023-02-11T12:15:11.901Z,77.10
2023-02-11T12:17:57.194Z,77.57
2023-02-11T12:20:36.864Z,77.70
2023-02-11T12:23:15.128Z,77.33
2023-02-11T12:25:51.621Z,76.79
2023-02-11T12:28:32.110Z,77.46
2023-02-11T12:31:23.514Z,77.43
2023-02-11T12:34:21.034Z,76.86
2023-02-11T12:37:03.143Z,76.73
2023-02-11T12:39:40.687Z,77.19
2023-02-11T12:42:46.490Z,77.17
2023-02-11T12:45:33.776Z,77.30
2023-02-11T12:48:13.357Z,77.24
2023-02-11T12:50:53.537Z,77.85
2023-02-11T12:53:36.385Z,77.73
2023-02-11T12:56:11.414Z,77.97
2023-02-11T12:58:45.364Z,77.78
2023-02-11T13:01:20.486Z,77.67
2023-02-11T13:03:54.136Z,78.10
2023-02-11T13:06:27.787Z,78.58
2023-02-11T13:08:59.829Z,77.93
2023-02-11T13:11:30.449Z,78.88
2023-02-11T13:14:04.672Z,78.40
2023-02-11T13:16:37.203Z,78.53
2023-02-11T13:19:16.955Z,78.70
2023-02-11T13:21:49.743Z,78.59
2023-02-11T13:24:25.757Z,78.86
2023-02-11T13:27:00.600Z,79.86
2023-02-11T13:29:42.074Z,80.16
2023-02-11T13:32:12.267Z,79.93
2023-02-11T13:34:59.302Z,80.96
2023-02-11T13:37:32.186Z,80.92
2023-02-11T13:40:01.871Z,80.88
2023-02-11T13:42:34.565Z,81.69
2023-02-11T13:45:03.401Z,81.91
2023-02-11T13:47:34.146Z,82.24
2023-02-11T13:50:05.694Z,82.54
2023-02-11T13:52:37.580Z,83.29
2023-02-11T13:55:15.131Z,83.56
2023-02-11T13:57:43.212Z,84.38
2023-02-11T14:00:47.703Z,84.44
2023-02-11T14:03:46.645Z,84.46
2023-02-11T14:06:36.723Z,84.82
2023-02-11T14:09:43.469Z,85.27
2023-02-11T14:12:31.181Z,85.29
2023-02-11T14:15:18.448Z,85.90
2023-02-11T14:17:45.977Z,85.36
2023-02-11T14:20:42.095Z,85.27
2023-02-11T14:23:22.715Z,86.10
2023-02-11T14:25:59.542Z,85.78
2023-02-11T14:28:34.522Z,86.22
2023-02-11T14:31:10.316Z,87.09
2023-02-11T14:34:16.522Z,86.76
2023-02-11T14:37:04.185Z,87.25
2023-02-11T14:39:49.621Z,88.12
2023-02-11T14:42:22.608Z,88.01
2023-02-11T14:44:50.852Z,88.87
2023-02-11T14:47:21.181Z,88.51
2023-02-11T14:49:49.538Z,89.20
2023-02-11T14:52:26.087Z,88.46
2023-02-11T14:55:14.733Z,89.29
2023-02-11T14:57:44.585Z,88.87
2023-02-11T15:00:18.946Z,88.59
2023-02-11T15:02:46.569Z,88.75
2023-02-11T15:05:16.466Z,88.88
2023-02-11T15:07:47.533Z,89.06
2023-02-11T15:10:28.604Z,88.83
2023-02-11T15:12:56.619Z,88.28
2023-02-11T15:15:24.211Z,87.93
2023-02-11T15:17:51.797Z,88.14
2023-02-11T15:20:24.659Z,87.85
2023-02-11T15:22:57.512Z,87.73
2023-02-11T15:25:27.932Z,87.61
2023-02-11T15:27:57.786Z,87.61
2023-02-11T15:30:29.094Z,88.26
2023-02-11T15:32:59.871Z,88.63
2023-02-11T15:35:29.426Z,88.48
2023-02-11T15:37:59.589Z,88.41
2023-02-11T15:40:29.438Z,88.42
2023-02-11T15:42:58.962Z,88.29
2023-02-11T15:45:30.932Z,88.08
2023-02-11T15:48:02.745Z,88.73
2023-02-11T15:50:32.814Z,89.23
2023-02-11T15:53:05.102Z,89.70
2023-02-11T15:55:33.171Z,89.13
2023-02-11T15:58:02.165Z,89.39
2023-02-11T16:00:34.068Z,90.21
2023-02-11T16:03:01.826Z,89.68
2023-02-11T16:05:31.847Z,90.07
2023-02-11T16:08:01.819Z,90.71
2023-02-11T16:10:31.533Z,90.74
2023-02-11T16:13:19.029Z,90.81
2023-02-11T16:15:52.945Z,91.41
2023-02-11T16:18:37.362Z,90.84
2023-02-11T16:21:12.385Z,90.87
2023-02-11T16:23:44.498Z,91.94
2023-02-11T16:26:22.487Z,92.43
2023-02-11T16:28:50.496Z,92.21
2023-02-11T16:31:20.733Z,92.40
2023-02-11T16:33:48.003Z,92.56
2023-02-11T16:36:19.741Z,92.77
2023-02-11T16:38:48.881Z,92.46
2023-02-11T16:41:16.138Z,92.27
2023-02-11T16:43:43.404Z,92.40
2023-02-11T16:46:15.587Z,92.79
2023-02-11T16:48:43.182Z,92.93
2023-02-11T16:51:12.226Z,93.17
2023-02-11T16:53:39.528Z,93.26
2023-02-11T16:56:14.896Z,92.81
2023-02-11T16:58:42.212Z,93.59
2023-02-11T17:01:12.175Z,92.91
2023-02-11T17:03:41.172Z,93.79
2023-02-11T17:06:10.875Z,94.09
2023-02-11T17:08:38.189Z,93.97
2023-02-11T17:11:07.319Z,94.42
2023-02-11T17:13:34.704Z,94.63
2023-02-11T17:16:02.168Z,94.76
2023-02-11T17:18:29.997Z,94.34
2023-02-11T17:20:57.236Z,94.52
2023-02-11T17:23:24.648Z,94.34
2023-02-11T17:25:57.105Z,94.90
2023-02-11T17:28:26.046Z,94.70
2023-02-11T17:30:53.639Z,94.47
2023-02-11T17:33:21.989Z,94.33
2023-02-11T17:35:51.946Z,95.26
2023-02-11T17:38:19.554Z,95.15
2023-02-11T17:40:47.023Z,95.46
2023-02-11T17:43:15.881Z,95.13
2023-02-11T17:45:44.692Z,94.91
2023-02-11T17:48:12.026Z,95.10
2023-02-11T17:50:39.343Z,95.55
2023-02-11T17:53:06.675Z,96.27
2023-02-11T17:55:34.218Z,95.95
2023-02-11T17:58:01.572Z,95.29
2023-02-11T18:00:29.160Z,96.28
2023-02-11T18:02:58.003Z,95.74
2023-02-11T18:05:28.582Z,95.63
2023-02-11T18:07:55.952Z,95.91
2023-02-11T18:10:23.163Z,96.34
2023-02-11T18:12:50.520Z,96.74
2023-02-11T18:15:17.969Z,95.97
2023-02-11T18:17:47.726Z,95.77
2023-02-11T18:20:16.534Z,95.71
2023-02-11T18:22:44.417Z,96.10
2023-02-11T18:25:15.498Z,96.52
2023-02-11T18:27:44.873Z,96.14
2023-02-11T18:30:16.708Z,96.26
2023-02-11T18:32:44.342Z,96.30
2023-02-11T18:35:14.804Z,95.71
2023-02-11T18:37:43.854Z,95.92
2023-02-11T18:40:12.597Z,95.70
2023-02-11T18:42:40.080Z,96.14
2023-02-11T18:45:15.087Z,96.22
2023-02-11T18:47:42.507Z,95.43
2023-02-11T18:50:13.856Z,95.94
2023-02-11T18:52:41.415Z,95.74
2023-02-11T18:55:10.435Z,95.83
2023-02-11T18:57:37.892Z,95.80
2023-02-11T19:00:06.486Z,96.02
2023-02-11T19:02:33.863Z,95.36
2023-02-11T19:05:01.378Z,95.91
2023-02-11T19:07:28.767Z,95.37
2023-02-11T19:09:56.339Z,95.75
2023-02-11T19:12:25.438Z,96.29
2023-02-11T19:14:53.101Z,96.32
2023-02-11T19:17:20.514Z,96.38
2023-02-11T19:19:47.972Z,95.88
2023-02-11T19:22:15.273Z,96.66
2023-02-11T19:24:42.615Z,96.56
2023-02-11T19:27:10.313Z,96.44
2023-02-11T19:29:39.236Z,96.29
2023-02-11T19:32:07.924Z,96.59
2023-02-11T19:34:41.312Z,95.91
2023-02-11T19:37:10.902Z,96.50
2023-02-11T19:39:38.390Z,96.32
2023-02-11T19:42:06.052Z,96.23
2023-02-11T19:44:33.305Z,95.88
2023-02-11T19:47:01.938Z,96.17
2023-02-11T19:49:29.244Z,96.40
2023-02-11T19:52:00.068Z,96.16
2023-02-11T19:54:29.182Z,96.38
2023-02-11T19:56:57.368Z,95.87
2023-02-11T19:59:25.076Z,96.24
2023-02-11T20:01:53.953Z,96.03
2023-02-11T20:04:25.362Z,96.00
2023-02-11T20:06:52.628Z,96.15
2023-02-11T20:09:20.143Z,95.39
2023-02-11T20:11:47.653Z,95.42
2023-02-11T20:14:15.738Z,95.95
2023-02-11T20:16:49.270Z,95.14
2023-02-11T20:19:18.910Z,95.81
2023-02-11T20:21:54.700Z,95.29
2023-02-11T20:24:25.814Z,94.95
2023-02-11T20:26:56.610Z,95.28
2023-02-11T20:29:24.753Z,95.06
2023-02-11T20:31:52.304Z,94.94
2023-02-11T20:34:21.211Z,95.06
2023-02-11T20:36:53.560Z,94.97
2023-02-11T20:39:24.037Z,95.13
2023-02-11T20:41:52.006Z,95.92
2023-02-11T20:44:21.503Z,95.62
2023-02-11T20:46:49.316Z,95.40
2023-02-11T20:49:19.260Z,94.70
2023-02-11T20:51:47.442Z,94.78
2023-02-11T20:54:18.156Z,95.81
2023-02-11T20:56:48.146Z,94.78
2023-02-11T20:59:16.996Z,95.74
2023-02-11T21:01:47.052Z,95.17
2023-02-11T21:04:17.268Z,95.64
2023-02-11T21:06:47.520Z,95.72
2023-02-11T21:09:21.804Z,94.88
2023-02-11T21:11:51.666Z,94.90
2023-02-11T21:14:20.018Z,94.83
2023-02-11T21:16:48.019Z,95.33
2023-02-11T21:19:17.124Z,94.93
2023-02-11T21:21:44.688Z,94.72
2023-02-11T21:24:12.692Z,94.59
2023-02-11T21:26:41.973Z,95.46
2023-02-11T21:29:09.769Z,95.39
2023-02-11T21:31:38.167Z,94.56
2023-02-11T21:34:06.125Z,95.41
2023-02-11T21:36:33.828Z,94.68
2023-02-11T21:39:01.987Z,94.72
2023-02-11T21:41:29.854Z,95.41
2023-02-11T21:43:58.529Z,94.79
2023-02-11T21:46:27.729Z,95.06
2023-02-11T21:48:55.239Z,95.45
2023-02-11T21:51:24.226Z,94.68
2023-02-11T21:53:53.565Z,94.65
2023-02-11T21:56:21.311Z,94.59
2023-02-11T21:58:53.107Z,95.23
2023-02-11T22:01:24.280Z,95.51
2023-02-11T22:03:51.798Z,94.97
2023-02-11T22:06:21.719Z,95.16
2023-02-11T22:08:49.451Z,94.94
2023-02-11T22:11:17.298Z,95.40
2023-02-11T22:13:44.481Z,95.03
2023-02-11T22:16:14.416Z,95.40
2023-02-11T22:18:46.576Z,95.13
2023-02-11T22:21:16.018Z,95.23
2023-02-11T22:23:44.256Z,94.63
2023-02-11T22:26:13.303Z,95.78
2023-02-11T22:28:41.653Z,95.47
2023-02-11T22:31:12.446Z,94.81
2023-02-11T22:33:40.699Z,95.34
2023-02-11T22:36:15.806Z,95.08
2023-02-11T22:38:43.168Z,95.28
2023-02-11T22:41:11.661Z,95.70
2023-02-11T22:43:41.395Z,95.77
2023-02-11T22:46:09.035Z,95.75
2023-02-11T22:48:36.602Z,95.45
2023-02-11T22:51:05.016Z,95.40
2023-02-11T22:53:34.088Z,95.76
2023-02-11T22:56:05.812Z,96.00
2023-02-11T22:58:33.781Z,95.82
2023-02-11T23:01:01.151Z,95.22
2023-02-11T23:03:29.201Z,95.15
2023-02-11T23:05:58.307Z,95.72
2023-02-11T23:08:26.359Z,95.78
2023-02-11T23:10:55.500Z,95.50
2023-02-11T23:13:23.094Z,94.62
2023-02-11T23:15:50.594Z,95.60
2023-02-11T23:18:17.877Z,94.75
2023-02-11T23:20:45.457Z,95.21
2023-02-11T23:23:12.764Z,94.69
2023-02-11T23:25:43.568Z,94.96
2023-02-11T23:28:12.749Z,95.29
2023-02-11T23:30:41.437Z,94.61
2023-02-11T23:33:08.819Z,95.57
2023-02-11T23:35:36.575Z,94.88
2023-02-11T23:38:03.883Z,95.27
2023-02-11T23:40:31.387Z,95.52
2023-02-11T23:42:58.659Z,94.68
2023-02-11T23:45:27.334Z,94.73
2023-02-11T23:47:54.709Z,95.04
2023-02-11T23:50:21.925Z,94.96
2023-02-11T23:52:49.225Z,94.64
2023-02-11T23:55:16.728Z,94.92
2023-02-11T23:57:43.921Z,95.12
